Wilson, Wisconsin
Current Conditions -  °F | °C
As of 11:55 AM on Sunday 21 Dec 2014 (Local Time) from KLUM Reporting Station
Light Snow Light Snow  
Wind Chill: 24°   Ceiling: 300
Heat Index: 33°   Visibility: 1.5mi
Dew Point: 33°   Wind: 12mph
Humidity: 99%   Direction: 120°ESE
Pressure: 29.88"   Gusts: NA
Location:  44.95°N, 92.17°W
Report Text: KLUM 211755Z AUTO 12010KT 1 1/2SM -SN OVC003 01/01 A2988 RMK AO2 P0001 60001 T00060005 10006 21005
Loading
Personal Weather Stations






























Interactive Weather Map New forecast layout! Learn more

10-Day Weather Forecast

Advertisements
Track Severe Weather on mobile